createdAt,value
2016-10-20T00:00:42.034Z,0
2016-10-20T00:01:40.905Z,0
2016-10-20T00:02:41.615Z,0
2016-10-20T00:03:41.083Z,0
2016-10-20T00:04:41.747Z,0
2016-10-20T00:05:42.144Z,0
2016-10-20T00:06:42.411Z,0
2016-10-20T00:07:42.563Z,0
2016-10-20T00:08:42.614Z,0
2016-10-20T00:09:42.464Z,0
2016-10-20T00:10:42.780Z,0
2016-10-20T00:11:43.005Z,0
2016-10-20T00:12:42.585Z,0
2016-10-20T00:13:43.283Z,0
2016-10-20T00:14:42.096Z,0
2016-10-20T00:15:42.525Z,0
2016-10-20T00:16:42.245Z,0
2016-10-20T00:17:42.235Z,0
2016-10-20T00:18:42.396Z,0
2016-10-20T00:19:42.466Z,0
2016-10-20T00:20:42.444Z,0
2016-10-20T00:21:41.882Z,0
2016-10-20T00:22:42.633Z,0
2016-10-20T00:23:42.592Z,0
2016-10-20T00:24:42.113Z,0
2016-10-20T00:25:41.998Z,0
2016-10-20T00:26:42.524Z,0
2016-10-20T00:27:41.550Z,0
2016-10-20T00:28:41.551Z,0
2016-10-20T00:29:42.358Z,0
2016-10-20T00:30:42.516Z,0
2016-10-20T00:31:43.025Z,0
2016-10-20T00:32:42.863Z,0
2016-10-20T00:33:41.696Z,0
2016-10-20T00:34:42.698Z,0
2016-10-20T00:35:41.868Z,0
2016-10-20T00:36:42.468Z,0
2016-10-20T00:37:41.786Z,0
2016-10-20T00:38:43.059Z,0
2016-10-20T00:39:42.279Z,0
2016-10-20T00:40:42.622Z,0
2016-10-20T00:41:42.467Z,0
2016-10-20T00:42:42.391Z,0
2016-10-20T00:43:42.459Z,0
2016-10-20T00:44:42.665Z,0
2016-10-20T00:45:42.576Z,0
2016-10-20T00:46:42.343Z,0
2016-10-20T00:47:43.041Z,0
2016-10-20T00:48:42.678Z,0
2016-10-20T00:49:41.793Z,0
2016-10-20T00:50:42.345Z,0
2016-10-20T00:51:41.859Z,0
2016-10-20T00:52:41.761Z,0
2016-10-20T00:53:42.949Z,0
2016-10-20T00:54:42.717Z,0
2016-10-20T00:55:42.656Z,0
2016-10-20T00:56:42.311Z,0
2016-10-20T00:57:43.087Z,0
2016-10-20T00:58:43.381Z,0
2016-10-20T00:59:42.330Z,0
2016-10-20T01:00:43.355Z,0
2016-10-20T01:01:42.223Z,0
2016-10-20T01:02:42.413Z,0
2016-10-20T01:03:43.396Z,0
2016-10-20T01:04:43.146Z,0
2016-10-20T01:05:43.293Z,0
2016-10-20T01:06:41.961Z,0
2016-10-20T01:07:42.283Z,0
2016-10-20T01:08:43.193Z,0
2016-10-20T01:09:42.753Z,0
2016-10-20T01:10:42.279Z,0
2016-10-20T01:11:42.277Z,0
2016-10-20T01:12:43.121Z,0
2016-10-20T01:13:43.210Z,0
2016-10-20T01:14:42.692Z,0
2016-10-20T01:15:42.795Z,0
2016-10-20T01:16:42.881Z,0
2016-10-20T01:17:42.694Z,0
2016-10-20T01:18:43.022Z,0
2016-10-20T01:19:42.532Z,0
2016-10-20T01:20:42.517Z,0
2016-10-20T01:21:42.385Z,0
2016-10-20T01:22:42.594Z,0
2016-10-20T01:23:42.807Z,0
2016-10-20T01:24:42.758Z,0
2016-10-20T01:25:42.972Z,0
2016-10-20T01:26:42.550Z,0
2016-10-20T01:27:43.581Z,0
2016-10-20T01:28:44.128Z,0
2016-10-20T01:29:42.459Z,0
2016-10-20T01:30:44.917Z,0
2016-10-20T01:31:43.106Z,0
2016-10-20T01:32:43.119Z,0
2016-10-20T01:33:43.589Z,0
2016-10-20T01:34:42.719Z,0
2016-10-20T01:35:43.429Z,0
2016-10-20T01:36:43.842Z,0
2016-10-20T01:37:43.625Z,0
2016-10-20T01:38:42.426Z,0
2016-10-20T01:39:42.355Z,0
2016-10-20T01:40:43.405Z,0
2016-10-20T01:41:43.716Z,0
2016-10-20T01:42:42.942Z,0
2016-10-20T01:43:43.007Z,0
2016-10-20T01:44:43.289Z,0
2016-10-20T01:45:43.900Z,0
2016-10-20T01:46:43.310Z,0
2016-10-20T01:47:44.107Z,0
2016-10-20T01:48:43.099Z,0
2016-10-20T01:49:42.947Z,0
2016-10-20T01:50:42.623Z,0
2016-10-20T01:51:42.942Z,0
2016-10-20T01:52:43.339Z,0
2016-10-20T01:53:42.795Z,0
2016-10-20T01:54:43.285Z,0
2016-10-20T01:55:43.286Z,0
2016-10-20T01:56:42.761Z,0
2016-10-20T01:57:44.645Z,0
2016-10-20T01:58:44.374Z,0
2016-10-20T01:59:43.957Z,0
2016-10-20T02:00:42.950Z,0
2016-10-20T02:01:43.395Z,0
2016-10-20T02:02:43.585Z,0
2016-10-20T02:03:44.557Z,0
2016-10-20T02:04:44.202Z,0
2016-10-20T02:05:45.157Z,0
2016-10-20T02:06:43.663Z,0
2016-10-20T02:07:44.270Z,0
2016-10-20T02:08:43.855Z,0
2016-10-20T02:09:43.272Z,0
2016-10-20T02:10:42.883Z,0
2016-10-20T02:11:43.914Z,0
2016-10-20T02:12:44.203Z,0
2016-10-20T02:13:44.436Z,0
2016-10-20T02:14:44.313Z,0
2016-10-20T02:15:43.452Z,0
2016-10-20T02:16:43.633Z,0
2016-10-20T02:17:43.206Z,0
2016-10-20T02:18:44.308Z,0
2016-10-20T02:19:44.422Z,0
2016-10-20T02:20:43.709Z,0
2016-10-20T02:21:44.026Z,0
2016-10-20T02:22:44.141Z,0
2016-10-20T02:23:43.987Z,0
2016-10-20T02:24:43.384Z,0
2016-10-20T02:25:44.157Z,0
2016-10-20T02:26:43.545Z,0
2016-10-20T02:27:43.565Z,0
2016-10-20T02:28:44.342Z,0
2016-10-20T02:29:44.899Z,0
2016-10-20T02:30:44.699Z,0
2016-10-20T02:31:43.875Z,0
2016-10-20T02:32:44.290Z,0
2016-10-20T02:33:44.051Z,0
2016-10-20T02:34:44.774Z,0
2016-10-20T02:35:44.552Z,0
2016-10-20T02:36:43.863Z,0
2016-10-20T02:37:44.505Z,0
2016-10-20T02:38:44.358Z,0
2016-10-20T02:39:44.905Z,0
2016-10-20T02:40:43.380Z,0
2016-10-20T02:41:44.829Z,0
2016-10-20T02:42:44.405Z,0
2016-10-20T02:43:44.079Z,0
2016-10-20T02:44:44.058Z,0
2016-10-20T02:45:44.293Z,0
2016-10-20T02:46:45.083Z,0
2016-10-20T02:47:45.027Z,0
2016-10-20T02:48:44.101Z,0
2016-10-20T02:49:44.552Z,0
2016-10-20T02:50:45.794Z,0
2016-10-20T02:51:43.862Z,0
2016-10-20T02:52:44.692Z,0
2016-10-20T02:53:44.791Z,0
2016-10-20T02:54:44.028Z,0
2016-10-20T02:55:44.069Z,0
2016-10-20T02:56:44.910Z,0
2016-10-20T02:57:44.983Z,0
2016-10-20T02:58:44.405Z,0
2016-10-20T02:59:44.613Z,0
2016-10-20T03:00:44.266Z,0
2016-10-20T03:01:44.798Z,0
2016-10-20T03:02:44.044Z,0
2016-10-20T03:03:44.180Z,0
2016-10-20T03:04:43.958Z,0
2016-10-20T03:05:44.210Z,0
2016-10-20T03:06:44.426Z,0
2016-10-20T03:07:45.562Z,0
2016-10-20T03:08:45.677Z,0
2016-10-20T03:09:44.356Z,0
2016-10-20T03:10:46.041Z,0
2016-10-20T03:11:44.664Z,0
2016-10-20T03:12:45.317Z,0
2016-10-20T03:13:45.066Z,0
2016-10-20T03:14:45.534Z,0
2016-10-20T03:15:44.086Z,0
2016-10-20T03:16:44.732Z,0
2016-10-20T03:17:45.492Z,0
2016-10-20T03:18:45.338Z,0
2016-10-20T03:19:46.742Z,0
2016-10-20T03:20:44.464Z,0
2016-10-20T03:21:44.981Z,0
2016-10-20T03:22:44.949Z,0
2016-10-20T03:23:44.340Z,0
2016-10-20T03:24:45.397Z,0
2016-10-20T03:25:44.822Z,0
2016-10-20T03:26:45.605Z,0
2016-10-20T03:27:44.500Z,0
2016-10-20T03:28:44.374Z,0
2016-10-20T03:29:44.270Z,0
2016-10-20T03:30:44.816Z,0
2016-10-20T03:31:45.088Z,0
2016-10-20T03:32:45.378Z,0
2016-10-20T03:33:44.801Z,0
2016-10-20T03:34:46.215Z,0
2016-10-20T03:35:45.674Z,0
2016-10-20T03:36:45.161Z,0
2016-10-20T03:37:44.958Z,0
2016-10-20T03:38:45.785Z,0
2016-10-20T03:39:45.519Z,0
2016-10-20T03:40:44.617Z,0
2016-10-20T03:41:45.262Z,0
2016-10-20T03:42:44.111Z,0
2016-10-20T03:43:45.581Z,0
2016-10-20T03:44:45.225Z,0
2016-10-20T03:45:45.201Z,0
2016-10-20T03:46:45.170Z,0
2016-10-20T03:47:45.363Z,0
2016-10-20T03:48:45.302Z,0
2016-10-20T03:49:44.983Z,0
2016-10-20T03:50:45.511Z,0
2016-10-20T03:51:45.178Z,0
2016-10-20T03:52:44.988Z,0
2016-10-20T03:53:45.461Z,0
2016-10-20T03:54:46.019Z,0
2016-10-20T03:55:45.561Z,0
2016-10-20T03:56:44.787Z,0
2016-10-20T03:57:44.964Z,0
2016-10-20T03:58:46.644Z,0
2016-10-20T03:59:45.267Z,0
2016-10-20T04:00:45.451Z,0
2016-10-20T04:01:46.541Z,0
2016-10-20T04:02:45.493Z,0
2016-10-20T04:03:46.740Z,0
2016-10-20T04:04:45.979Z,0
2016-10-20T04:05:45.097Z,0
2016-10-20T04:06:46.608Z,0
2016-10-20T04:07:45.349Z,0
2016-10-20T04:08:45.526Z,0
2016-10-20T04:09:44.953Z,0
2016-10-20T04:10:44.598Z,0
2016-10-20T04:11:45.221Z,0
2016-10-20T04:12:46.239Z,0
2016-10-20T04:13:45.310Z,0
2016-10-20T04:14:45.794Z,0
2016-10-20T04:15:46.985Z,0
2016-10-20T04:16:45.715Z,0
2016-10-20T04:17:46.583Z,0
2016-10-20T04:18:46.212Z,0
2016-10-20T04:19:45.969Z,0
2016-10-20T04:20:46.518Z,0
2016-10-20T04:21:46.876Z,0
2016-10-20T04:22:46.187Z,0
2016-10-20T04:23:47.004Z,0
2016-10-20T04:24:46.063Z,0
2016-10-20T04:25:46.222Z,0
2016-10-20T04:26:47.474Z,0
2016-10-20T04:27:47.453Z,0
2016-10-20T04:28:46.660Z,0
2016-10-20T04:29:47.175Z,0
2016-10-20T04:30:46.239Z,0
2016-10-20T04:31:47.116Z,0
2016-10-20T04:32:46.235Z,0
2016-10-20T04:33:45.509Z,0
2016-10-20T04:34:46.977Z,0
2016-10-20T04:35:46.791Z,0
2016-10-20T04:36:46.569Z,0
2016-10-20T04:37:46.229Z,0
2016-10-20T04:38:46.774Z,0
2016-10-20T04:39:47.030Z,0
2016-10-20T04:40:46.098Z,0
2016-10-20T04:41:46.688Z,0
2016-10-20T04:42:47.672Z,0
2016-10-20T04:43:47.432Z,0
2016-10-20T04:44:46.701Z,0
2016-10-20T04:45:47.623Z,0
2016-10-20T04:46:47.862Z,0
2016-10-20T04:47:46.893Z,0
2016-10-20T04:48:47.348Z,0
2016-10-20T04:49:46.450Z,0
2016-10-20T04:50:47.715Z,0
2016-10-20T04:51:46.198Z,0
2016-10-20T04:52:47.490Z,0
2016-10-20T04:53:47.791Z,0
2016-10-20T04:54:47.441Z,0
2016-10-20T04:55:46.815Z,0
2016-10-20T04:56:48.056Z,0
2016-10-20T04:57:46.323Z,0
2016-10-20T04:58:47.224Z,0
2016-10-20T04:59:48.011Z,0
2016-10-20T05:00:46.984Z,0
2016-10-20T05:01:46.997Z,0
2016-10-20T05:02:46.721Z,0
2016-10-20T05:03:48.060Z,0
2016-10-20T05:04:48.172Z,0
2016-10-20T05:05:47.253Z,0
2016-10-20T05:06:48.444Z,0
2016-10-20T05:07:48.281Z,0
2016-10-20T05:08:48.350Z,0
2016-10-20T05:09:47.236Z,0
2016-10-20T05:10:48.410Z,0
2016-10-20T05:11:47.821Z,0
2016-10-20T05:12:47.200Z,0
2016-10-20T05:13:47.759Z,0
2016-10-20T05:14:47.095Z,0
2016-10-20T05:15:47.735Z,0
2016-10-20T05:16:47.962Z,0
2016-10-20T05:17:47.099Z,0
2016-10-20T05:18:47.804Z,0
2016-10-20T05:19:46.799Z,0
2016-10-20T05:20:48.014Z,0
2016-10-20T05:21:47.431Z,0
2016-10-20T05:22:47.228Z,0
2016-10-20T05:23:47.497Z,0
2016-10-20T05:24:47.364Z,0
2016-10-20T05:25:46.751Z,0
2016-10-20T05:26:47.813Z,0
2016-10-20T05:27:46.947Z,0
2016-10-20T05:28:47.802Z,0
2016-10-20T05:29:47.600Z,0
2016-10-20T05:30:46.908Z,0
2016-10-20T05:31:46.932Z,0
2016-10-20T05:32:47.651Z,0
2016-10-20T05:33:47.427Z,0
2016-10-20T05:34:47.132Z,0
2016-10-20T05:35:47.146Z,0
2016-10-20T05:36:47.519Z,0
2016-10-20T05:37:47.125Z,0
2016-10-20T05:38:47.069Z,0
2016-10-20T05:39:47.125Z,0
2016-10-20T05:40:49.576Z,0
2016-10-20T05:41:47.507Z,0
2016-10-20T05:42:46.961Z,0
2016-10-20T05:43:47.803Z,0
2016-10-20T05:44:47.442Z,0
2016-10-20T05:45:48.189Z,0
2016-10-20T05:46:47.692Z,0
2016-10-20T05:47:46.562Z,0
2016-10-20T05:48:47.947Z,0
2016-10-20T05:49:47.901Z,0
2016-10-20T05:50:47.532Z,0
2016-10-20T05:51:48.481Z,0
2016-10-20T05:52:47.183Z,0
2016-10-20T05:53:48.237Z,5
2016-10-20T05:54:48.542Z,5
2016-10-20T05:55:47.135Z,5
2016-10-20T05:56:47.840Z,5
2016-10-20T05:57:48.618Z,5
2016-10-20T05:58:47.714Z,5
2016-10-20T05:59:47.868Z,5
2016-10-20T06:00:48.833Z,5
2016-10-20T06:01:48.079Z,5
2016-10-20T06:02:47.644Z,5
2016-10-20T06:03:47.636Z,5
2016-10-20T06:04:48.341Z,10
2016-10-20T06:05:47.392Z,10
2016-10-20T06:06:47.348Z,10
2016-10-20T06:07:47.926Z,10
2016-10-20T06:08:47.337Z,10
2016-10-20T06:09:47.281Z,10
2016-10-20T06:10:47.731Z,10
2016-10-20T06:11:47.729Z,10
2016-10-20T06:12:47.723Z,10
2016-10-20T06:13:47.450Z,10
2016-10-20T06:14:48.056Z,10
2016-10-20T06:15:47.822Z,15
2016-10-20T06:16:49.154Z,15
2016-10-20T06:17:47.373Z,15
2016-10-20T06:18:47.638Z,15
2016-10-20T06:19:47.434Z,15
2016-10-20T06:20:47.494Z,15
2016-10-20T06:21:46.779Z,15
2016-10-20T06:22:47.010Z,15
2016-10-20T06:23:47.243Z,20
2016-10-20T06:24:47.129Z,20
2016-10-20T06:25:47.159Z,20
2016-10-20T06:26:46.608Z,20
2016-10-20T06:27:47.349Z,20
2016-10-20T06:28:46.884Z,20
2016-10-20T06:29:47.488Z,20
2016-10-20T06:30:47.566Z,20
2016-10-20T06:31:47.990Z,20
2016-10-20T06:32:48.866Z,20
2016-10-20T06:33:47.328Z,20
2016-10-20T06:34:46.837Z,20
2016-10-20T06:35:48.324Z,20
2016-10-20T06:36:49.216Z,25
2016-10-20T06:37:49.065Z,25
2016-10-20T06:38:47.453Z,25
2016-10-20T06:39:48.030Z,20
2016-10-20T06:40:47.787Z,20
2016-10-20T06:41:48.181Z,25
2016-10-20T06:42:47.540Z,25
2016-10-20T06:43:47.703Z,25
2016-10-20T06:44:47.252Z,25
2016-10-20T06:45:47.685Z,25
2016-10-20T06:46:48.713Z,25
2016-10-20T06:47:47.954Z,25
2016-10-20T06:48:48.151Z,25
2016-10-20T06:49:49.149Z,25
2016-10-20T06:50:49.012Z,25
2016-10-20T06:51:49.112Z,25
2016-10-20T06:52:49.069Z,25
2016-10-20T06:53:48.472Z,30
2016-10-20T06:54:49.866Z,35
2016-10-20T06:55:49.171Z,35
2016-10-20T06:56:48.481Z,40
2016-10-20T06:57:48.721Z,40
2016-10-20T06:58:48.722Z,40
2016-10-20T06:59:49.349Z,45
2016-10-20T07:00:49.133Z,45
2016-10-20T07:01:48.394Z,45
2016-10-20T07:02:49.232Z,45
2016-10-20T07:03:48.994Z,45
2016-10-20T07:04:48.637Z,50
2016-10-20T07:05:49.357Z,55
2016-10-20T07:06:49.320Z,55
2016-10-20T07:07:48.771Z,60
2016-10-20T07:08:50.436Z,60
2016-10-20T07:09:49.174Z,55
2016-10-20T07:10:49.430Z,55
2016-10-20T07:11:49.687Z,50
2016-10-20T07:12:50.759Z,50
2016-10-20T07:13:47.620Z,45
2016-10-20T07:14:48.671Z,45
2016-10-20T07:15:49.008Z,45
2016-10-20T07:16:49.837Z,45
2016-10-20T07:17:49.511Z,50
2016-10-20T07:18:48.003Z,50
2016-10-20T07:19:48.304Z,50
2016-10-20T07:20:49.183Z,50
2016-10-20T07:21:49.238Z,50
2016-10-20T07:22:47.919Z,45
2016-10-20T07:23:49.106Z,45
2016-10-20T07:24:48.096Z,40
2016-10-20T07:25:49.382Z,40
2016-10-20T07:26:49.326Z,35
2016-10-20T07:27:48.337Z,35
2016-10-20T07:28:48.583Z,35
2016-10-20T07:29:48.256Z,35
2016-10-20T07:30:48.870Z,35
2016-10-20T07:31:49.309Z,30
2016-10-20T07:32:49.081Z,30
2016-10-20T07:33:48.567Z,30
2016-10-20T07:34:49.502Z,30
2016-10-20T07:35:48.797Z,30
2016-10-20T07:36:49.208Z,35
2016-10-20T07:37:47.954Z,35
2016-10-20T07:38:49.108Z,40
2016-10-20T07:39:49.157Z,45
2016-10-20T07:40:48.964Z,50
2016-10-20T07:41:49.284Z,55
2016-10-20T07:42:49.593Z,55
2016-10-20T07:43:48.580Z,55
2016-10-20T07:44:48.647Z,50
2016-10-20T07:45:49.257Z,50
2016-10-20T07:46:48.483Z,55
2016-10-20T07:47:49.317Z,55
2016-10-20T07:48:49.374Z,55
2016-10-20T07:49:48.882Z,50
2016-10-20T07:50:48.897Z,45
2016-10-20T07:51:49.185Z,50
2016-10-20T07:52:49.417Z,60
2016-10-20T07:53:50.029Z,55
2016-10-20T07:54:49.250Z,50
2016-10-20T07:55:48.833Z,50
2016-10-20T07:56:49.122Z,50
2016-10-20T07:57:49.021Z,50
2016-10-20T07:58:48.951Z,45
2016-10-20T07:59:49.544Z,45
2016-10-20T08:00:49.286Z,45
2016-10-20T08:01:50.013Z,50
2016-10-20T08:02:48.949Z,50
2016-10-20T08:03:49.053Z,50
2016-10-20T08:04:49.070Z,50
2016-10-20T08:05:49.318Z,55
2016-10-20T08:06:49.684Z,60
2016-10-20T08:07:50.285Z,60
2016-10-20T08:08:48.440Z,65
2016-10-20T08:09:48.880Z,70
2016-10-20T08:10:50.296Z,70
2016-10-20T08:11:49.298Z,80
2016-10-20T08:12:49.574Z,85
2016-10-20T08:13:48.883Z,85
2016-10-20T08:14:49.068Z,85
2016-10-20T08:15:49.778Z,80
2016-10-20T08:16:50.727Z,75
2016-10-20T08:17:49.165Z,70
2016-10-20T08:18:49.335Z,75
2016-10-20T08:19:50.213Z,80
2016-10-20T08:20:50.789Z,80
2016-10-20T08:21:49.927Z,80
2016-10-20T08:22:49.900Z,85
2016-10-20T08:23:49.679Z,85
2016-10-20T08:24:49.168Z,90
2016-10-20T08:25:49.284Z,100
2016-10-20T08:26:49.732Z,110
2016-10-20T08:27:49.536Z,115
2016-10-20T08:28:49.817Z,115
2016-10-20T08:29:49.503Z,115
2016-10-20T08:30:50.288Z,115
2016-10-20T08:31:49.616Z,110
2016-10-20T08:32:50.022Z,105
2016-10-20T08:33:49.442Z,105
2016-10-20T08:34:49.646Z,100
2016-10-20T08:35:49.491Z,100
2016-10-20T08:36:49.726Z,95
2016-10-20T08:37:49.725Z,100
2016-10-20T08:38:50.050Z,115
2016-10-20T08:39:49.080Z,125
2016-10-20T08:40:50.531Z,140
2016-10-20T08:41:49.129Z,145
2016-10-20T08:42:50.315Z,145
2016-10-20T08:43:49.681Z,150
2016-10-20T08:44:49.531Z,160
2016-10-20T08:45:51.138Z,170
2016-10-20T08:46:50.117Z,185
2016-10-20T08:47:49.625Z,200
2016-10-20T08:48:49.170Z,200
2016-10-20T08:49:49.446Z,200
2016-10-20T08:50:50.479Z,205
2016-10-20T08:51:51.152Z,215
2016-10-20T08:52:50.116Z,230
2016-10-20T08:53:49.837Z,255
2016-10-20T08:54:49.895Z,265
2016-10-20T08:55:49.733Z,270
2016-10-20T08:56:50.718Z,265
2016-10-20T08:57:50.520Z,260
2016-10-20T08:58:49.649Z,255
2016-10-20T08:59:50.427Z,250
2016-10-20T09:00:49.948Z,255
2016-10-20T09:01:50.963Z,260
2016-10-20T09:02:50.862Z,270
2016-10-20T09:03:50.522Z,260
2016-10-20T09:04:50.797Z,260
2016-10-20T09:05:49.916Z,270
2016-10-20T09:06:50.360Z,285
2016-10-20T09:07:50.212Z,295
2016-10-20T09:08:50.233Z,305
2016-10-20T09:09:50.233Z,305
2016-10-20T09:10:50.202Z,295
2016-10-20T09:11:50.176Z,295
2016-10-20T09:12:50.174Z,295
2016-10-20T09:13:50.807Z,285
2016-10-20T09:14:50.211Z,275
2016-10-20T09:15:49.811Z,260
2016-10-20T09:16:50.096Z,240
2016-10-20T09:17:49.761Z,220
2016-10-20T09:18:50.650Z,210
2016-10-20T09:19:49.727Z,215
2016-10-20T09:20:50.510Z,245
2016-10-20T09:21:51.360Z,265
2016-10-20T09:22:50.756Z,270
2016-10-20T09:23:50.527Z,280
2016-10-20T09:24:51.253Z,315
2016-10-20T09:25:50.023Z,390
2016-10-20T09:26:51.158Z,470
2016-10-20T09:27:50.819Z,515
2016-10-20T09:28:50.281Z,540
2016-10-20T09:29:49.649Z,540
2016-10-20T09:30:49.954Z,520
2016-10-20T09:31:51.134Z,475
2016-10-20T09:32:49.847Z,440
2016-10-20T09:33:50.854Z,405
2016-10-20T09:34:49.964Z,385
2016-10-20T09:35:51.116Z,370
2016-10-20T09:36:50.450Z,380
2016-10-20T09:37:51.276Z,390
2016-10-20T09:38:49.737Z,375
2016-10-20T09:39:50.936Z,355
2016-10-20T09:40:50.746Z,335
2016-10-20T09:41:51.361Z,300
2016-10-20T09:42:50.396Z,265
2016-10-20T09:43:51.043Z,240
2016-10-20T09:44:51.448Z,220
2016-10-20T09:45:51.135Z,210
2016-10-20T09:46:50.693Z,210
2016-10-20T09:47:50.339Z,205
2016-10-20T09:48:50.247Z,200
2016-10-20T09:49:51.859Z,205
2016-10-20T09:50:50.410Z,220
2016-10-20T09:51:51.125Z,225
2016-10-20T09:52:50.798Z,230
2016-10-20T09:53:50.610Z,230
2016-10-20T09:54:51.768Z,220
2016-10-20T09:55:50.907Z,215
2016-10-20T09:56:50.701Z,215
2016-10-20T09:57:51.934Z,215
2016-10-20T09:58:51.208Z,220
2016-10-20T09:59:53.082Z,235
2016-10-20T10:00:51.086Z,245
2016-10-20T10:01:50.490Z,280
2016-10-20T10:02:50.982Z,340
2016-10-20T10:03:50.732Z,410
2016-10-20T10:04:52.662Z,465
2016-10-20T10:05:51.291Z,500
2016-10-20T10:06:50.964Z,525
2016-10-20T10:07:51.014Z,540
2016-10-20T10:08:51.428Z,570
2016-10-20T10:09:50.247Z,600
2016-10-20T10:10:51.830Z,625
2016-10-20T10:11:51.709Z,650
2016-10-20T10:12:50.826Z,670
2016-10-20T10:13:53.931Z,690
2016-10-20T10:14:52.135Z,710
2016-10-20T10:15:51.579Z,740
2016-10-20T10:16:51.773Z,760
2016-10-20T10:17:51.626Z,790
2016-10-20T10:18:51.545Z,825
2016-10-20T10:19:51.903Z,850
2016-10-20T10:20:51.381Z,870
2016-10-20T10:21:52.484Z,890
2016-10-20T10:22:53.010Z,900
2016-10-20T10:23:51.473Z,915
2016-10-20T10:24:51.369Z,920
2016-10-20T10:25:51.127Z,925
2016-10-20T10:26:51.324Z,920
2016-10-20T10:27:51.635Z,915
2016-10-20T10:28:52.129Z,915
2016-10-20T10:29:52.028Z,905
2016-10-20T10:30:52.433Z,895
2016-10-20T10:31:51.399Z,880
2016-10-20T10:32:51.563Z,865
2016-10-20T10:33:52.189Z,850
2016-10-20T10:34:51.116Z,795
2016-10-20T10:35:51.532Z,755
2016-10-20T10:36:52.070Z,730
2016-10-20T10:37:51.335Z,725
2016-10-20T10:38:51.496Z,725
2016-10-20T10:39:51.919Z,725
2016-10-20T10:40:51.610Z,725
2016-10-20T10:41:52.409Z,710
2016-10-20T10:42:51.819Z,710
2016-10-20T10:43:52.375Z,730
2016-10-20T10:44:51.452Z,770
2016-10-20T10:45:52.158Z,795
2016-10-20T10:46:51.437Z,795
2016-10-20T10:47:52.036Z,775
2016-10-20T10:48:51.523Z,730
2016-10-20T10:49:51.965Z,695
2016-10-20T10:50:52.467Z,685
2016-10-20T10:51:52.839Z,675
2016-10-20T10:52:52.367Z,675
2016-10-20T10:53:52.196Z,690
2016-10-20T10:54:51.888Z,700
2016-10-20T10:55:51.769Z,715
2016-10-20T10:56:52.958Z,740
2016-10-20T10:57:51.615Z,750
2016-10-20T10:58:51.399Z,760
2016-10-20T10:59:53.405Z,775
2016-10-20T11:00:52.005Z,785
2016-10-20T11:01:52.590Z,785
2016-10-20T11:02:52.342Z,780
2016-10-20T11:03:51.898Z,755
2016-10-20T11:04:52.221Z,720
2016-10-20T11:05:53.175Z,715
2016-10-20T11:06:52.247Z,705
2016-10-20T11:07:52.934Z,705
2016-10-20T11:08:52.360Z,690
2016-10-20T11:09:51.799Z,690
2016-10-20T11:10:52.592Z,685
2016-10-20T11:11:52.781Z,680
2016-10-20T11:12:51.618Z,675
2016-10-20T11:13:52.128Z,680
2016-10-20T11:14:53.128Z,690
2016-10-20T11:15:52.276Z,695
2016-10-20T11:16:52.663Z,700
2016-10-20T11:17:52.803Z,685
2016-10-20T11:18:52.715Z,665
2016-10-20T11:19:53.053Z,630
2016-10-20T11:20:52.393Z,595
2016-10-20T11:21:52.075Z,570
2016-10-20T11:22:52.017Z,555
2016-10-20T11:23:52.499Z,550
2016-10-20T11:24:53.073Z,555
2016-10-20T11:25:52.844Z,565
2016-10-20T11:26:52.621Z,575
2016-10-20T11:27:52.828Z,590
2016-10-20T11:28:53.897Z,600
2016-10-20T11:29:52.495Z,610
2016-10-20T11:30:53.489Z,610
2016-10-20T11:31:52.692Z,600
2016-10-20T11:32:52.501Z,585
2016-10-20T11:33:52.423Z,580
2016-10-20T11:34:52.498Z,585
2016-10-20T11:35:52.033Z,600
2016-10-20T11:36:53.005Z,610
2016-10-20T11:37:52.407Z,605
2016-10-20T11:38:52.279Z,615
2016-10-20T11:39:52.609Z,635
2016-10-20T11:40:52.784Z,640
2016-10-20T11:41:52.841Z,620
2016-10-20T11:42:52.833Z,590
2016-10-20T11:43:53.024Z,565
2016-10-20T11:44:52.555Z,550
2016-10-20T11:45:52.423Z,520
2016-10-20T11:46:53.500Z,485
2016-10-20T11:47:52.581Z,450
2016-10-20T11:48:52.773Z,410
2016-10-20T11:49:52.704Z,385
2016-10-20T11:50:52.650Z,370
2016-10-20T11:51:53.066Z,365
2016-10-20T11:52:52.780Z,365
2016-10-20T11:53:53.794Z,370
2016-10-20T11:54:52.701Z,375
2016-10-20T11:55:53.705Z,375
2016-10-20T11:56:53.184Z,370
2016-10-20T11:57:53.276Z,365
2016-10-20T11:58:52.439Z,360
2016-10-20T11:59:53.983Z,355
2016-10-20T12:00:54.000Z,350
2016-10-20T12:01:53.220Z,345
2016-10-20T12:02:53.513Z,335
2016-10-20T12:03:52.946Z,320
2016-10-20T12:04:53.503Z,310
2016-10-20T12:05:54.008Z,300
2016-10-20T12:06:53.557Z,295
2016-10-20T12:07:52.693Z,290
2016-10-20T12:08:53.201Z,285
2016-10-20T12:09:53.315Z,275
2016-10-20T12:10:52.627Z,270
2016-10-20T12:11:53.076Z,265
2016-10-20T12:12:53.503Z,255
2016-10-20T12:13:53.039Z,245
2016-10-20T12:14:53.528Z,235
2016-10-20T12:15:52.487Z,220
2016-10-20T12:16:53.036Z,210
2016-10-20T12:17:52.588Z,195
2016-10-20T12:18:51.944Z,185
2016-10-20T12:19:52.590Z,175
2016-10-20T12:20:52.644Z,170
2016-10-20T12:21:52.635Z,165
2016-10-20T12:22:52.619Z,160
2016-10-20T12:23:52.633Z,160
2016-10-20T12:24:52.352Z,155
2016-10-20T12:25:52.468Z,150
2016-10-20T12:26:52.440Z,150
2016-10-20T12:27:52.465Z,155
2016-10-20T12:28:52.474Z,160
2016-10-20T12:29:52.793Z,170
2016-10-20T12:30:52.211Z,185
2016-10-20T12:31:52.808Z,200
2016-10-20T12:32:52.168Z,215
2016-10-20T12:33:52.188Z,220
2016-10-20T12:34:52.449Z,225
2016-10-20T12:35:52.286Z,225
2016-10-20T12:36:52.579Z,220
2016-10-20T12:37:54.466Z,220
2016-10-20T12:38:54.719Z,220
2016-10-20T12:39:54.131Z,225
2016-10-20T12:40:55.324Z,230
2016-10-20T12:41:54.022Z,235
2016-10-20T12:42:54.191Z,245
2016-10-20T12:43:55.164Z,255
2016-10-20T12:44:54.508Z,265
2016-10-20T12:45:55.859Z,280
2016-10-20T12:46:54.280Z,295
2016-10-20T12:47:54.674Z,305
2016-10-20T12:48:54.520Z,320
2016-10-20T12:49:54.430Z,330
2016-10-20T12:50:54.626Z,340
2016-10-20T12:51:54.504Z,335
2016-10-20T12:52:55.255Z,335
2016-10-20T12:53:53.777Z,330
2016-10-20T12:54:55.084Z,320
2016-10-20T12:55:55.280Z,315
2016-10-20T12:56:55.129Z,315
2016-10-20T12:57:54.315Z,310
2016-10-20T12:58:54.961Z,310
2016-10-20T12:59:55.527Z,310
2016-10-20T13:00:55.056Z,310
2016-10-20T13:01:54.526Z,310
2016-10-20T13:02:54.517Z,310
2016-10-20T13:03:54.103Z,315
2016-10-20T13:04:54.748Z,320
2016-10-20T13:05:55.325Z,325
2016-10-20T13:06:54.666Z,330
2016-10-20T13:07:55.185Z,340
2016-10-20T13:08:55.076Z,355
2016-10-20T13:09:55.679Z,365
2016-10-20T13:10:56.015Z,380
2016-10-20T13:11:56.222Z,390
2016-10-20T13:12:55.661Z,400
2016-10-20T13:13:55.422Z,420
2016-10-20T13:14:55.279Z,435
2016-10-20T13:15:55.787Z,455
2016-10-20T13:16:55.831Z,475
2016-10-20T13:17:55.801Z,495
2016-10-20T13:18:55.918Z,510
2016-10-20T13:19:54.838Z,515
2016-10-20T13:20:55.755Z,520
2016-10-20T13:21:54.590Z,520
2016-10-20T13:22:55.059Z,520
2016-10-20T13:23:55.060Z,510
2016-10-20T13:24:55.474Z,510
2016-10-20T13:25:55.035Z,485
2016-10-20T13:26:54.950Z,460
2016-10-20T13:27:55.349Z,430
2016-10-20T13:28:55.065Z,410
2016-10-20T13:29:56.466Z,385
2016-10-20T13:30:54.875Z,360
2016-10-20T13:31:55.375Z,340
2016-10-20T13:32:54.755Z,320
2016-10-20T13:33:55.667Z,300
2016-10-20T13:34:54.244Z,295
2016-10-20T13:35:54.795Z,285
2016-10-20T13:36:55.751Z,280
2016-10-20T13:37:55.572Z,280
2016-10-20T13:38:54.768Z,280
2016-10-20T13:39:54.827Z,280
2016-10-20T13:40:55.960Z,285
2016-10-20T13:41:55.092Z,295
2016-10-20T13:42:55.548Z,300
2016-10-20T13:43:55.254Z,310
2016-10-20T13:44:55.127Z,315
2016-10-20T13:45:55.536Z,320
2016-10-20T13:46:55.340Z,325
2016-10-20T13:47:55.021Z,330
2016-10-20T13:48:54.844Z,340
2016-10-20T13:49:55.645Z,340
2016-10-20T13:50:54.892Z,345
2016-10-20T13:51:56.215Z,350
2016-10-20T13:52:55.253Z,350
2016-10-20T13:53:55.219Z,350
2016-10-20T13:54:56.443Z,345
2016-10-20T13:55:56.230Z,345
2016-10-20T13:56:55.548Z,335
2016-10-20T13:57:55.964Z,330
2016-10-20T13:58:55.584Z,330
2016-10-20T13:59:55.375Z,325
2016-10-20T14:00:56.002Z,325
2016-10-20T14:01:55.196Z,315
2016-10-20T14:02:55.097Z,305
2016-10-20T14:03:55.127Z,300
2016-10-20T14:04:55.164Z,280
2016-10-20T14:05:55.071Z,275
2016-10-20T14:06:55.967Z,260
2016-10-20T14:07:56.127Z,250
2016-10-20T14:08:55.386Z,230
2016-10-20T14:09:56.086Z,215
2016-10-20T14:10:56.033Z,195
2016-10-20T14:11:54.863Z,180
2016-10-20T14:12:55.062Z,165
2016-10-20T14:13:56.094Z,150
2016-10-20T14:14:55.573Z,140
2016-10-20T14:15:56.517Z,135
2016-10-20T14:16:55.467Z,135